createdAt,value
2023-02-01T00:00:13.247Z,10.20
2023-02-01T00:02:42.947Z,9.73
2023-02-01T00:05:11.880Z,11.23
2023-02-01T00:07:40.396Z,8.23
2023-02-01T00:10:10.225Z,9.37
2023-02-01T00:12:40.503Z,8.47
2023-02-01T00:15:09.790Z,9.50
2023-02-01T00:17:41.688Z,10.73
2023-02-01T00:20:14.735Z,8.10
2023-02-01T00:22:42.864Z,8.43
2023-02-01T00:25:11.413Z,8.97
2023-02-01T00:27:40.452Z,7.70
2023-02-01T00:30:09.984Z,7.77
2023-02-01T00:32:42.467Z,7.63
2023-02-01T00:35:12.425Z,8.23
2023-02-01T00:37:43.505Z,6.23
2023-02-01T00:40:13.432Z,5.27
2023-02-01T00:42:44.367Z,5.57
2023-02-01T00:45:12.819Z,5.20
2023-02-01T00:47:44.511Z,4.57
2023-02-01T00:50:12.916Z,4.07
2023-02-01T00:52:41.469Z,5.37
2023-02-01T00:55:11.402Z,5.60
2023-02-01T00:57:39.633Z,3.67
2023-02-01T01:00:12.709Z,3.37
2023-02-01T01:02:41.097Z,4.47
2023-02-01T01:05:09.620Z,2.87
2023-02-01T01:07:39.412Z,4.80
2023-02-01T01:10:09.463Z,4.83
2023-02-01T01:12:46.041Z,4.90
2023-02-01T01:15:14.183Z,2.73
2023-02-01T01:17:43.276Z,4.63
2023-02-01T01:20:13.019Z,2.63
2023-02-01T01:22:42.517Z,3.10
2023-02-01T01:25:10.842Z,5.37
2023-02-01T01:27:43.477Z,3.10
2023-02-01T01:30:16.591Z,2.70
2023-02-01T01:32:44.878Z,3.63
2023-02-01T01:35:13.451Z,6.90
2023-02-01T01:37:43.400Z,2.50
2023-02-01T01:40:13.351Z,2.80
2023-02-01T01:42:45.515Z,5.73
2023-02-01T01:45:25.983Z,5.43
2023-02-01T01:48:00.561Z,3.43
2023-02-01T01:50:34.671Z,2.40
2023-02-01T01:53:07.377Z,6.33
2023-02-01T01:55:40.460Z,3.60
2023-02-01T01:58:15.396Z,3.13
2023-02-01T02:00:44.337Z,5.10
2023-02-01T02:03:18.221Z,4.77
2023-02-01T02:05:53.279Z,6.20
2023-02-01T02:08:24.123Z,5.97
2023-02-01T02:11:02.068Z,5.93
2023-02-01T02:13:39.530Z,9.03
2023-02-01T02:16:28.463Z,8.27
2023-02-01T02:19:19.848Z,6.20
2023-02-01T02:22:11.003Z,3.77
2023-02-01T02:25:22.482Z,4.93
2023-02-01T02:28:00.321Z,3.03
2023-02-01T02:30:46.487Z,9.33
2023-02-01T02:37:02.998Z,6.23
2023-02-01T02:39:47.313Z,7.87
2023-02-01T02:42:38.301Z,4.30
2023-02-01T02:45:30.366Z,6.00
2023-02-01T02:48:07.671Z,10.13
2023-02-01T02:50:57.430Z,7.47
2023-02-01T02:53:56.047Z,4.97
2023-02-01T02:56:48.387Z,6.37
2023-02-01T02:59:40.209Z,5.37
2023-02-01T03:02:29.230Z,4.60
2023-02-01T03:04:59.516Z,9.80
2023-02-01T03:08:06.490Z,5.20
2023-02-01T03:10:45.710Z,11.17
2023-02-01T03:13:24.056Z,11.27
2023-02-01T03:16:00.496Z,7.80
2023-02-01T03:18:36.338Z,11.63
2023-02-01T03:21:12.550Z,10.53
2023-02-01T03:23:41.094Z,8.00
2023-02-01T03:26:16.272Z,11.43
2023-02-01T03:28:50.639Z,10.10
2023-02-01T03:31:22.379Z,13.83
2023-02-01T03:33:51.482Z,12.03
2023-02-01T03:36:31.520Z,7.83
2023-02-01T03:39:05.317Z,13.27
2023-02-01T03:41:41.509Z,8.03
2023-02-01T03:44:15.544Z,11.40
2023-02-01T03:46:49.616Z,10.33
2023-02-01T03:49:23.389Z,7.90
2023-02-01T03:51:55.686Z,9.27
2023-02-01T03:54:25.965Z,6.63
2023-02-01T03:57:03.380Z,8.77
2023-02-01T03:59:32.487Z,11.57
2023-02-01T04:02:04.694Z,9.00
2023-02-01T04:04:33.853Z,14.10
2023-02-01T04:07:02.506Z,12.27
2023-02-01T04:09:31.464Z,15.67
2023-02-01T04:12:01.373Z,11.70
2023-02-01T04:14:33.361Z,14.40
2023-02-01T04:17:02.339Z,12.53
2023-02-01T04:19:31.578Z,14.00
2023-02-01T04:22:00.484Z,9.83
2023-02-01T04:24:28.672Z,13.47
2023-02-01T04:27:00.514Z,14.10
2023-02-01T04:29:30.435Z,15.23
2023-02-01T04:31:59.512Z,10.20
2023-02-01T04:34:28.342Z,12.50
2023-02-01T04:36:56.562Z,9.13
2023-02-01T04:39:28.572Z,10.73
2023-02-01T04:41:56.765Z,10.50
2023-02-01T04:44:24.993Z,13.67
2023-02-01T04:46:57.593Z,10.33
2023-02-01T04:49:26.533Z,13.63
2023-02-01T04:51:56.545Z,15.03
2023-02-01T04:54:24.769Z,13.53
2023-02-01T04:56:52.972Z,11.80
2023-02-01T04:59:24.528Z,11.03
2023-02-01T05:01:53.504Z,14.37
2023-02-01T05:04:23.105Z,13.00
2023-02-01T05:06:51.323Z,11.10
2023-02-01T05:09:19.421Z,9.27
2023-02-01T05:12:05.058Z,14.83
2023-02-01T05:14:33.349Z,8.33
2023-02-01T05:17:02.514Z,8.37
2023-02-01T05:19:31.986Z,11.70
2023-02-01T05:22:00.611Z,13.10
2023-02-01T05:24:28.767Z,15.37
2023-02-01T05:26:57.483Z,9.00
2023-02-01T05:29:26.199Z,13.53
2023-02-01T05:31:54.604Z,12.33
2023-02-01T05:34:22.782Z,14.67
2023-02-01T05:37:17.221Z,8.90
2023-02-01T05:39:45.817Z,9.33
2023-02-01T05:42:14.098Z,13.87
2023-02-01T05:44:44.664Z,8.47
2023-02-01T05:47:13.472Z,12.23
2023-02-01T05:49:41.758Z,8.97
2023-02-01T05:52:20.188Z,7.13
2023-02-01T05:54:50.385Z,12.53
2023-02-01T05:57:22.312Z,16.93
2023-02-01T05:59:51.351Z,16.07
2023-02-01T06:02:21.451Z,12.03
2023-02-01T06:04:50.392Z,10.70
2023-02-01T06:07:19.266Z,11.03
2023-02-01T06:09:49.270Z,9.90
2023-02-01T06:12:17.617Z,8.77
2023-02-01T06:14:46.317Z,12.30
2023-02-01T06:17:15.687Z,15.30
2023-02-01T06:19:45.358Z,9.87
2023-02-01T06:22:18.322Z,11.23
2023-02-01T06:24:47.518Z,10.20
2023-02-01T06:27:17.500Z,12.47
2023-02-01T06:29:46.397Z,11.30
2023-02-01T06:32:15.537Z,13.73
2023-02-01T06:34:47.460Z,12.27
2023-02-01T06:37:15.621Z,11.67
2023-02-01T06:39:44.531Z,11.97
2023-02-01T06:42:13.485Z,16.27
2023-02-01T06:44:43.541Z,14.87
2023-02-01T06:47:15.655Z,16.50
2023-02-01T06:49:43.912Z,11.93
2023-02-01T06:52:12.560Z,11.43
2023-02-01T06:54:41.391Z,15.73
2023-02-01T06:57:09.589Z,14.97
2023-02-01T06:59:42.342Z,13.77
2023-02-01T07:02:13.870Z,12.97
2023-02-01T07:04:42.572Z,9.27
2023-02-01T07:07:11.941Z,9.47
2023-02-01T07:09:40.157Z,13.23
2023-02-01T07:12:14.375Z,7.43
2023-02-01T07:14:42.536Z,9.07
2023-02-01T07:17:11.562Z,9.03
2023-02-01T07:19:41.223Z,10.77
2023-02-01T07:22:09.335Z,12.87
2023-02-01T07:24:42.377Z,7.90
2023-02-01T07:27:11.542Z,11.90
2023-02-01T07:29:40.411Z,9.10
2023-02-01T07:32:09.624Z,12.30
2023-02-01T07:34:37.819Z,13.03
2023-02-01T07:37:11.662Z,18.10
2023-02-01T07:39:40.305Z,10.63
2023-02-01T07:42:09.587Z,12.50
2023-02-01T07:44:38.542Z,13.03
2023-02-01T07:47:06.824Z,13.77
2023-02-01T07:49:38.511Z,13.60
2023-02-01T07:52:08.125Z,16.77
2023-02-01T07:54:38.400Z,12.60
2023-02-01T07:57:12.315Z,17.80
2023-02-01T08:00:01.467Z,14.63
2023-02-01T08:02:30.640Z,15.80
2023-02-01T08:04:58.844Z,12.13
2023-02-01T08:07:31.570Z,12.60
2023-02-01T08:10:00.976Z,10.93
2023-02-01T08:12:29.627Z,16.20
2023-02-01T08:14:57.831Z,11.77
2023-02-01T08:17:31.722Z,13.27
2023-02-01T08:19:59.870Z,16.40
2023-02-01T08:22:28.545Z,13.53
2023-02-01T08:25:02.333Z,10.63
2023-02-01T08:27:31.247Z,10.50
2023-02-01T08:30:00.412Z,11.77
2023-02-01T08:32:29.579Z,11.63
2023-02-01T08:34:57.816Z,12.37
2023-02-01T08:37:29.552Z,9.50
2023-02-01T08:39:59.162Z,9.77
2023-02-01T08:42:45.799Z,11.93
2023-02-01T08:45:14.732Z,11.90
2023-02-01T08:47:46.415Z,8.10
2023-02-01T08:50:15.584Z,12.97
2023-02-01T08:52:44.474Z,7.50
2023-02-01T08:55:15.350Z,12.47
2023-02-01T08:58:08.127Z,16.23
2023-02-01T09:00:36.255Z,15.33
2023-02-01T09:03:05.440Z,7.80
2023-02-01T09:05:48.508Z,7.57
2023-02-01T09:08:19.906Z,15.30
2023-02-01T09:10:49.565Z,10.77
2023-02-01T09:13:18.586Z,10.97
2023-02-01T09:15:46.764Z,13.63
2023-02-01T09:18:18.466Z,6.80
2023-02-01T09:20:49.157Z,9.90
2023-02-01T09:23:18.628Z,12.73
2023-02-01T09:25:46.795Z,12.97
2023-02-01T09:28:16.602Z,18.83
2023-02-01T09:30:50.339Z,10.50
2023-02-01T09:33:19.431Z,14.10
2023-02-01T09:35:48.660Z,9.50
2023-02-01T09:38:16.782Z,8.90
2023-02-01T09:40:49.629Z,11.30
2023-02-01T09:43:30.839Z,6.80
2023-02-01T09:46:14.262Z,15.03
2023-02-01T09:48:45.603Z,9.67
2023-02-01T09:51:22.308Z,7.47
2023-02-01T09:54:00.480Z,13.23
2023-02-01T09:56:36.964Z,12.13
2023-02-01T09:59:17.257Z,10.73
2023-02-01T10:01:50.660Z,12.43
2023-02-01T10:04:21.442Z,8.83
2023-02-01T10:07:03.502Z,7.50
2023-02-01T10:09:44.611Z,10.67
2023-02-01T10:12:49.612Z,8.23
2023-02-01T10:15:34.352Z,7.50
2023-02-01T10:18:25.974Z,10.50
2023-02-01T10:21:04.423Z,14.17
2023-02-01T10:23:55.274Z,9.20
2023-02-01T10:26:26.685Z,14.23
2023-02-01T10:29:01.637Z,14.97
2023-02-01T10:31:34.755Z,10.73
2023-02-01T10:34:17.151Z,12.67
2023-02-01T10:36:54.662Z,13.00
2023-02-01T10:39:23.524Z,10.33
2023-02-01T10:41:58.298Z,9.60
2023-02-01T10:44:30.454Z,9.73
2023-02-01T10:47:02.195Z,10.77
2023-02-01T10:49:41.670Z,10.97
2023-02-01T10:52:15.598Z,9.10
2023-02-01T10:54:44.674Z,12.77
2023-02-01T10:57:24.732Z,10.13
2023-02-01T10:59:53.461Z,9.10
2023-02-01T11:02:31.723Z,12.17
2023-02-01T11:05:05.606Z,12.10
2023-02-01T11:07:38.391Z,11.37
2023-02-01T11:10:07.868Z,12.60
2023-02-01T11:12:42.262Z,9.03
2023-02-01T11:15:22.604Z,13.70
2023-02-01T11:17:55.768Z,9.80
2023-02-01T11:20:38.328Z,8.70
2023-02-01T11:23:07.647Z,7.90
2023-02-01T11:25:39.655Z,12.97
2023-02-01T11:28:12.651Z,12.30
2023-02-01T11:30:44.565Z,15.80
2023-02-01T11:33:19.484Z,12.87
2023-02-01T11:35:49.678Z,9.50
2023-02-01T11:38:27.571Z,8.17
2023-02-01T11:40:56.670Z,9.90
2023-02-01T11:43:28.282Z,8.07
2023-02-01T11:46:00.660Z,5.43
2023-02-01T11:48:32.628Z,9.87
2023-02-01T11:51:24.715Z,7.53
2023-02-01T11:54:12.732Z,9.57
2023-02-01T11:56:50.643Z,8.13
2023-02-01T11:59:33.955Z,12.33
2023-02-01T12:02:35.402Z,10.67
2023-02-01T12:05:23.645Z,14.80
2023-02-01T12:08:17.673Z,13.07
2023-02-01T12:11:04.938Z,11.67
2023-02-01T12:13:48.225Z,6.33
2023-02-01T12:16:27.034Z,10.60
2023-02-01T12:19:17.537Z,12.47
2023-02-01T12:21:59.634Z,11.77
2023-02-01T12:25:06.130Z,12.43
2023-02-01T12:27:55.431Z,13.73
2023-02-01T12:30:44.361Z,7.67
2023-02-01T12:33:26.437Z,12.90
2023-02-01T12:36:10.748Z,11.70
2023-02-01T12:38:55.532Z,11.70
2023-02-01T12:41:45.653Z,12.97
2023-02-01T12:44:22.388Z,9.80
2023-02-01T12:46:57.566Z,14.80
2023-02-01T12:49:34.664Z,10.10
2023-02-01T12:52:07.684Z,10.77
2023-02-01T12:54:44.488Z,11.67
2023-02-01T12:57:18.290Z,13.90
2023-02-01T12:59:51.715Z,12.90
2023-02-01T13:02:30.756Z,13.87
2023-02-01T13:05:04.980Z,12.87
2023-02-01T13:07:40.614Z,16.37
2023-02-01T13:10:19.501Z,15.60
2023-02-01T13:12:58.331Z,16.77
2023-02-01T13:15:33.717Z,11.60
2023-02-01T13:18:10.508Z,13.13
2023-02-01T13:20:49.660Z,10.67
2023-02-01T13:23:26.058Z,16.67
2023-02-01T13:25:58.116Z,10.30
2023-02-01T13:28:29.985Z,4.63
2023-02-01T13:31:24.167Z,8.83
2023-02-01T13:34:27.999Z,8.60
2023-02-01T13:37:16.424Z,8.77
2023-02-01T13:39:51.173Z,11.47
2023-02-01T13:42:25.700Z,10.37
2023-02-01T13:44:59.742Z,3.80
2023-02-01T13:47:31.940Z,7.50
2023-02-01T13:50:04.679Z,8.03
2023-02-01T13:52:41.139Z,9.63
2023-02-01T13:55:32.177Z,7.17
2023-02-01T13:58:16.552Z,8.07
2023-02-01T14:00:46.693Z,6.83
2023-02-01T14:03:20.748Z,5.57
2023-02-01T14:06:02.414Z,9.33
2023-02-01T14:08:47.101Z,7.30
2023-02-01T14:11:44.337Z,6.33
2023-02-01T14:14:51.707Z,8.43
2023-02-01T14:17:39.170Z,8.83
2023-02-01T14:20:56.822Z,11.23
2023-02-01T14:23:34.206Z,9.47
2023-02-01T14:26:28.503Z,10.67
2023-02-01T14:29:03.005Z,8.97
2023-02-01T14:31:54.325Z,7.73
2023-02-01T14:34:33.554Z,8.90
2023-02-01T14:37:05.615Z,8.40
2023-02-01T14:39:48.747Z,8.40
2023-02-01T14:42:26.374Z,7.47
2023-02-01T14:44:58.913Z,7.60
2023-02-01T14:47:35.684Z,9.17
2023-02-01T14:50:41.609Z,5.93
2023-02-01T14:53:20.181Z,7.70
2023-02-01T14:55:52.738Z,6.93
2023-02-01T14:58:35.627Z,7.90
2023-02-01T15:01:06.950Z,7.97
2023-02-01T15:03:49.758Z,4.77
2023-02-01T15:06:29.767Z,3.60
2023-02-01T15:09:01.987Z,4.70
2023-02-01T15:11:30.745Z,4.97
2023-02-01T15:14:01.644Z,3.50
2023-02-01T15:16:30.121Z,5.67
2023-02-01T15:19:17.303Z,5.00
2023-02-01T15:21:50.731Z,4.43
2023-02-01T15:24:23.847Z,5.40
2023-02-01T15:26:53.874Z,5.40
2023-02-01T15:29:26.562Z,5.97
2023-02-01T15:31:56.870Z,4.60
2023-02-01T15:34:47.940Z,3.40
2023-02-01T15:37:17.735Z,4.70
2023-02-01T15:40:08.882Z,4.37
2023-02-01T15:42:37.789Z,6.07
2023-02-01T15:45:07.574Z,6.10
2023-02-01T15:47:37.146Z,7.10
2023-02-01T15:50:08.602Z,5.80
2023-02-01T15:52:39.816Z,4.30
2023-02-01T15:55:19.341Z,4.10
2023-02-01T15:57:48.270Z,5.13
2023-02-01T16:00:26.253Z,5.43
2023-02-01T16:02:56.643Z,3.57
2023-02-01T16:05:34.862Z,5.80
2023-02-01T16:08:06.326Z,6.57
2023-02-01T16:10:41.967Z,6.60
2023-02-01T16:13:10.107Z,7.27
2023-02-01T16:15:38.748Z,4.63
2023-02-01T16:18:08.838Z,7.17
2023-02-01T16:20:43.894Z,8.37
2023-02-01T16:23:12.465Z,8.07
2023-02-01T16:25:42.311Z,8.07
2023-02-01T16:28:15.176Z,8.37
2023-02-01T16:30:43.759Z,7.27
2023-02-01T16:33:19.262Z,6.43
2023-02-01T16:35:52.124Z,5.70
2023-02-01T16:38:24.432Z,6.57
2023-02-01T16:40:54.178Z,5.73
2023-02-01T16:43:25.284Z,7.73
2023-02-01T16:45:57.309Z,4.93
2023-02-01T16:48:28.603Z,6.47
2023-02-01T16:51:05.046Z,7.30
2023-02-01T16:53:41.740Z,10.03
2023-02-01T16:56:18.706Z,5.70
2023-02-01T16:58:47.767Z,7.33
2023-02-01T17:01:19.386Z,7.83
2023-02-01T17:03:48.748Z,7.70
2023-02-01T17:06:24.843Z,7.13
2023-02-01T17:08:56.579Z,5.53
2023-02-01T17:11:24.808Z,6.70
2023-02-01T17:13:53.092Z,10.50
2023-02-01T17:16:29.127Z,6.53
2023-02-01T17:19:00.543Z,6.80
2023-02-01T17:21:37.759Z,8.73
2023-02-01T17:24:07.257Z,7.43
2023-02-01T17:26:38.004Z,7.03
2023-02-01T17:29:09.371Z,6.73
2023-02-01T17:31:40.737Z,6.73
2023-02-01T17:34:10.261Z,5.97
2023-02-01T17:36:40.897Z,9.60
2023-02-01T17:39:33.147Z,9.83
2023-02-01T17:42:01.667Z,7.53
2023-02-01T17:44:31.430Z,6.87
2023-02-01T17:46:59.948Z,7.10
2023-02-01T17:49:29.563Z,11.57
2023-02-01T17:51:59.309Z,9.90
2023-02-01T17:54:27.497Z,8.83
2023-02-01T17:56:59.323Z,10.33
2023-02-01T17:59:27.645Z,12.50
2023-02-01T18:02:00.930Z,10.00
2023-02-01T18:04:29.351Z,6.90
2023-02-01T18:06:59.056Z,8.83
2023-02-01T18:09:28.608Z,9.40
2023-02-01T18:11:57.083Z,8.53
2023-02-01T18:14:28.185Z,15.43
2023-02-01T18:16:56.509Z,13.20
2023-02-01T18:19:24.751Z,9.73
2023-02-01T18:21:57.878Z,9.17
2023-02-01T18:24:28.126Z,10.73
2023-02-01T18:27:03.152Z,12.30
2023-02-01T18:29:31.294Z,12.20
2023-02-01T18:31:59.802Z,11.93
2023-02-01T18:34:28.846Z,9.37
2023-02-01T18:36:56.976Z,8.03
2023-02-01T18:39:25.633Z,10.53
2023-02-01T18:41:55.772Z,7.20
2023-02-01T18:44:24.388Z,11.00
2023-02-01T18:46:53.038Z,7.73
2023-02-01T18:49:21.152Z,7.63
2023-02-01T18:51:52.504Z,9.33
2023-02-01T18:54:20.763Z,9.70
2023-02-01T18:56:49.095Z,10.43
2023-02-01T18:59:18.757Z,7.60
2023-02-01T19:01:47.635Z,7.43
2023-02-01T19:04:16.469Z,8.07
2023-02-01T19:06:48.019Z,6.90
2023-02-01T19:09:16.201Z,7.40
2023-02-01T19:11:44.323Z,8.73
2023-02-01T19:14:15.746Z,9.67
2023-02-01T19:16:49.026Z,8.43
2023-02-01T19:19:17.247Z,7.30
2023-02-01T19:21:45.551Z,8.73
2023-02-01T19:24:13.677Z,8.23
2023-02-01T19:26:44.951Z,8.10
2023-02-01T19:29:13.100Z,10.07
2023-02-01T19:31:47.332Z,8.80
2023-02-01T19:34:15.812Z,8.03
2023-02-01T19:36:45.238Z,11.37
2023-02-01T19:39:13.491Z,11.90
2023-02-01T19:41:45.038Z,8.63
2023-02-01T19:44:14.598Z,11.77
2023-02-01T19:46:42.979Z,10.50
2023-02-01T19:49:12.982Z,13.73
2023-02-01T19:51:42.778Z,11.73
2023-02-01T19:54:10.927Z,9.77
2023-02-01T19:56:40.154Z,12.40
2023-02-01T19:59:10.219Z,5.97
2023-02-01T20:01:41.535Z,8.60
2023-02-01T20:04:12.459Z,11.13
2023-02-01T20:06:47.466Z,13.77
2023-02-01T20:09:17.249Z,9.63
2023-02-01T20:11:46.420Z,8.50
2023-02-01T20:14:16.394Z,9.00
2023-02-01T20:16:45.034Z,9.33
2023-02-01T20:19:15.743Z,11.87
2023-02-01T20:21:44.335Z,11.03
2023-02-01T20:24:14.549Z,12.27
2023-02-01T20:26:44.650Z,11.10
2023-02-01T20:29:13.428Z,9.97
2023-02-01T20:31:45.854Z,13.27
2023-02-01T20:34:16.690Z,13.77
2023-02-01T20:36:47.988Z,14.23
2023-02-01T20:39:19.330Z,11.40
2023-02-01T20:41:47.876Z,10.27
2023-02-01T20:44:16.109Z,11.00
2023-02-01T20:46:44.837Z,14.23
2023-02-01T20:49:13.072Z,13.00
2023-02-01T20:51:44.239Z,14.17
2023-02-01T20:54:12.534Z,13.97
2023-02-01T20:56:40.675Z,12.57
2023-02-01T20:59:12.189Z,14.13
2023-02-01T21:01:52.954Z,18.33
2023-02-01T21:04:22.812Z,18.03
2023-02-01T21:06:56.100Z,12.97
2023-02-01T21:09:24.822Z,14.60
2023-02-01T21:11:54.910Z,15.03
2023-02-01T21:14:24.709Z,15.80
2023-02-01T21:16:53.847Z,16.13
2023-02-01T21:19:27.011Z,16.87
2023-02-01T21:21:56.896Z,13.97
2023-02-01T21:27:17.513Z,16.43
2023-02-01T21:29:45.878Z,12.50
2023-02-01T21:32:14.306Z,13.23
2023-02-01T21:34:42.434Z,13.67
2023-02-01T21:37:12.888Z,10.70
2023-02-01T21:39:41.891Z,15.57
2023-02-01T21:42:17.704Z,22.77
2023-02-01T21:44:47.643Z,12.80
2023-02-01T21:47:17.868Z,11.80
2023-02-01T21:49:46.509Z,13.83
2023-02-01T21:52:24.129Z,15.90
2023-02-01T21:54:59.295Z,13.60
2023-02-01T21:57:32.177Z,12.53
2023-02-01T22:00:00.628Z,12.77
2023-02-01T22:02:29.911Z,12.67
2023-02-01T22:04:58.883Z,13.43
2023-02-01T22:07:28.748Z,11.30
2023-02-01T22:10:00.803Z,13.40
2023-02-01T22:12:29.165Z,12.00
2023-02-01T22:14:57.883Z,12.73
2023-02-01T22:17:26.025Z,13.23
2023-02-01T22:19:54.904Z,13.47
2023-02-01T22:22:27.972Z,12.27
2023-02-01T22:24:57.888Z,14.37
2023-02-01T22:27:54.782Z,11.10
2023-02-01T22:30:15.862Z,9.80
2023-02-01T22:32:45.446Z,10.63
2023-02-01T22:35:13.643Z,13.17
2023-02-01T22:37:44.375Z,11.53
2023-02-01T22:40:17.755Z,10.67
2023-02-01T22:42:46.868Z,11.33
2023-02-01T22:45:15.212Z,11.63
2023-02-01T22:47:43.472Z,11.07
2023-02-01T22:50:13.001Z,14.40
2023-02-01T22:52:44.105Z,11.37
2023-02-01T22:55:12.304Z,11.80
2023-02-01T22:57:41.832Z,13.23
2023-02-01T23:00:11.870Z,10.27
2023-02-01T23:03:06.746Z,10.77
2023-02-01T23:05:34.907Z,10.47
2023-02-01T23:08:07.589Z,12.50
2023-02-01T23:10:35.950Z,9.60
2023-02-01T23:13:05.560Z,13.03
2023-02-01T23:15:33.986Z,11.03
2023-02-01T23:18:02.853Z,10.43
2023-02-01T23:20:31.712Z,9.63
2023-02-01T23:23:00.116Z,7.30
2023-02-01T23:25:33.989Z,7.43
2023-02-01T23:28:02.310Z,9.07
2023-02-01T23:30:33.021Z,7.57
2023-02-01T23:33:03.211Z,8.20
2023-02-01T23:35:31.332Z,9.70
2023-02-01T23:38:02.969Z,9.80
2023-02-01T23:40:31.718Z,11.57
2023-02-01T23:43:18.598Z,10.50
2023-02-01T23:45:48.885Z,10.23
2023-02-01T23:48:17.644Z,10.00
2023-02-01T23:50:45.912Z,10.47
2023-02-01T23:53:14.892Z,8.73
2023-02-01T23:55:43.946Z,8.03
2023-02-01T23:58:12.729Z,11.80
